首页
METAR-TAF:

METAR-TAF

机场 :

Creech_Air_Force_Base

Indian Springs, 内华达州, 美国

纬度: 36-32N, 经度: 115-54W, 海拔: 952米

当前天气观测

该预报发布于40分钟前的15:55 UTC
静风
温度 34°C
湿度 19%
气压 1016 hPa
能見度: 16.1公里
天空无云

METAR: KINS 211555Z AUTO 00000KT 10SM CLR 34/07 A3001 RMK AO2 SLP096 T03350067 $

时间: 09:35 (16:35 UTC)

预报

该预报发布于35小时和50分钟前的04:45 UTC
预报有效从20日的 05点(UTC)到 21日的 11点(UTC)
风速6节,风向多变
能见度10公里或以上
少量云层高于13000英尺
成为
从 20日的 18点(UTC)到 20日的 19点(UTC)
风速9节,风向东转东南
能见度10公里或以上
散云层高于12000英尺
雷暴
成为
从 20日的 20点(UTC)到 20日的 21点(UTC)
风速10节,风向西转西南,有时为18节阵风
能见度10公里或以上
多云层高于14000英尺
雷暴
短暂存在
从 20日的 21点(UTC)到 21日的 02点(UTC)
风速12节,风向南转西南,有时为25节阵风
附近有阵雨
成为
从 21日的 01点(UTC)到 21日的 02点(UTC)
风速11节,风向西转西南
能见度10公里或以上
少量云层高于13000英尺
少量云层高于20000英尺
成为
从 21日的 04点(UTC)到 21日的 05点(UTC)
风速15节,风向东转东北,有时为28节阵风
能见度10公里或以上
多云层高于10000英尺
附近有阵雨
成为
从 21日的 07点(UTC)到 21日的 08点(UTC)
风速8节,风向西
能見度: 2205
散云层高于14000英尺

TAF: KINS 200445Z 2005/2111 VRB06KT 9999 FEW130 QNH2999INS BECMG 2018/2019 12009KT 9999 SCT120 QNH2995INS TS OMTNS BECMG 2020/2021 24010G18KT 9999 BKN140 QNH2988INS TS OMTNS TEMPO 2021/2102 20012G25KT VCSH 510009 BECMG 2101/2102 24011KT 9999 FEW130 FEW200 QNH2987INS BECMG 2104/2105 06015G28KT 9999 VCSH BKN100 510009 QNH2989INS BECMG 2107/2108 28008KT 9999 NSW SCT140 QNH2991INS TX41/2023Z TN25/2013Z LAST NO AMDS AFT 2005 NEXT 2205

超过4000个机场的气象观测和天气预报(METAR&TAF报告)。

可查询的气象台以黄色和红色小点在地图上表示。

将鼠标移到小点上方,可查看气象台名称。

然后点击查看天气观测和预报。

如需切换地图:点击带黑十字的绿色按钮放大地图;点击带横线的绿色按钮缩小地图;或者点击绿色箭头查看邻近地区的地图。


METAR-TAF: